Time;durP1;ratioP1;P1;durP2;ratioP2;P2;SDS_P1;SDS_P2;PMS_P1;PMS_P2;Temp;Humidity;BMP_temperature;BMP_pressure;BME280_temperature;BME280_humidity;BME280_pressure;Samples;Min_cycle;Max_cycle;Signal;HPM_P1;HPM_P2
2022/03/12 13:19:57;;;;;;;26.58;7.97;;;15.80;95.50;;;;;;6230230;22;1910940;-41
2022/03/12 13:22:59;;;;;;;22.48;7.75;;;15.80;95.70;;;;;;6298665;22;20023;-42
2022/03/12 14:17:59;;;;;;;51.65;27.38;;;13.40;99.90;;;;;;6264190;22;20449;-45
2022/03/12 14:21:23;;;;;;;42.65;21.92;;;13.40;99.90;;;;;;6262352;22;20021;-46
2022/03/12 14:24:52;;;;;;;32.83;18.27;;;10.40;99.90;;;;;;6263255;22;20125;-45
2022/03/12 14:28:16;;;;;;;30.83;15.93;;;13.80;99.90;;;;;;6214411;22;20015;-44
2022/03/12 14:31:42;;;;;;;78.95;25.73;;;9.70;99.90;;;;;;6239196;22;20008;-44
2022/03/12 14:35:10;;;;;;;182.00;48.35;;;14.70;99.90;;;;;;6269299;22;20023;-46
2022/03/12 14:38:33;;;;;;;132.70;32.38;;;10.50;99.90;;;;;;6268091;22;20047;-46
2022/03/12 14:41:59;;;;;;;271.35;69.82;;;10.30;99.90;;;;;;6239972;22;20050;-47
2022/03/12 14:45:24;;;;;;;176.18;46.95;;;10.20;99.90;;;;;;6215464;22;20015;-46
2022/03/12 14:48:51;;;;;;;184.80;46.20;;;13.80;99.90;;;;;;6236336;22;20584;-46
2022/03/12 14:52:20;;;;;;;324.15;86.50;;;9.70;99.90;;;;;;6241082;22;20015;-45
2022/03/12 14:55:42;;;;;;;35.22;16.40;;;12.90;99.90;;;;;;6269355;22;20030;-44
2022/03/12 14:59:11;;;;;;;20.45;10.88;;;12.20;99.90;;;;;;6269596;22;20015;-45
2022/03/12 15:02:36;;;;;;;17.35;11.75;;;12.80;99.90;;;;;;6242374;22;20090;-45
2022/03/12 15:06:03;;;;;;;19.08;11.27;;;12.40;99.90;;;;;;6216707;22;20520;-46
2022/03/12 15:09:27;;;;;;;16.75;9.73;;;10.60;99.90;;;;;;6217316;22;20480;-45
2022/03/12 15:13:00;;;;;;;14.68;8.65;;;9.50;99.90;;;;;;6260408;22;20135;-45
2022/03/12 15:16:20;;;;;;;13.93;9.05;;;11.90;99.90;;;;;;6234498;22;20054;-45
2022/03/12 15:19:46;;;;;;;20.77;10.48;;;12.20;99.90;;;;;;6278126;22;20055;-50
2022/03/12 15:23:16;;;;;;;35.10;12.10;;;11.60;99.90;;;;;;6299745;22;20016;-44
2022/03/12 15:26:39;;;;;;;77.05;19.30;;;9.30;99.90;;;;;;6244325;22;20333;-45
2022/03/12 15:30:04;;;;;;;18.85;10.18;;;10.60;99.90;;;;;;6296527;22;20363;-44
2022/03/12 15:33:32;;;;;;;16.48;8.68;;;11.60;99.90;;;;;;6299894;22;20392;-45
2022/03/12 15:36:59;;;;;;;17.45;9.90;;;9.80;99.90;;;;;;6273391;22;20015;-48
2022/03/12 15:40:23;;;;;;;14.95;9.25;;;12.00;99.90;;;;;;6245931;22;20015;-45
2022/03/12 15:43:50;;;;;;;12.00;8.38;;;9.90;99.90;;;;;;6244276;22;20077;-46
2022/03/12 15:50:46;;;;;;;14.95;8.43;;;10.20;99.90;;;;;;6300215;22;20019;-44
2022/03/12 15:57:49;;;;;;;17.85;10.23;;;12.00;99.90;;;;;;6296628;22;20442;-46
2022/03/12 16:11:20;;;;;;;14.27;8.88;;;10.10;99.90;;;;;;6064316;22;2061287;-46
2022/03/12 16:38:51;;;;;;;12.35;8.10;;;10.80;99.90;;;;;;6124076;23;20064;-46
2022/03/12 16:59:28;;;;;;;15.27;8.18;;;10.80;99.90;;;;;;6125476;23;20158;-46
2022/03/12 17:09:45;;;;;;;14.25;8.50;;;10.40;99.90;;;;;;6123767;23;20049;-45
2022/03/12 17:16:45;;;;;;;15.53;9.13;;;9.70;99.90;;;;;;6093762;23;20021;-45
2022/03/12 17:20:09;;;;;;;16.42;8.70;;;9.70;99.90;;;;;;6117400;23;20018;-45
2022/03/12 17:23:29;;;;;;;13.50;8.70;;;9.50;99.90;;;;;;6068961;23;20403;-45
2022/03/12 17:26:56;;;;;;;17.08;9.70;;;9.40;99.90;;;;;;6117244;23;20014;-46
2022/03/12 17:30:20;;;;;;;18.88;9.07;;;9.30;99.90;;;;;;6114877;23;20037;-45
2022/03/12 17:33:49;;;;;;;17.83;11.70;;;9.30;99.90;;;;;;6092701;23;20345;-46
2022/03/12 17:37:18;;;;;;;20.50;12.48;;;9.10;99.90;;;;;;6117474;23;20021;-45
2022/03/12 17:40:48;;;;;;;21.98;12.35;;;9.10;99.90;;;;;;6067431;23;20029;-44
2022/03/12 17:44:05;;;;;;;17.30;10.50;;;8.90;99.90;;;;;;6092725;23;20022;-45
2022/03/12 17:47:32;;;;;;;16.13;10.52;;;8.90;99.90;;;;;;6092070;23;20013;-45
2022/03/12 17:51:00;;;;;;;19.90;10.63;;;8.80;99.90;;;;;;6088124;23;20247;-45
2022/03/12 17:54:26;;;;;;;13.40;10.02;;;8.80;99.90;;;;;;6119796;23;20352;-45
2022/03/12 18:01:19;;;;;;;20.50;12.93;;;8.50;99.90;;;;;;6114704;23;20022;-45
2022/03/12 18:04:46;;;;;;;21.52;13.20;;;8.50;99.90;;;;;;6116816;23;20028;-45
2022/03/12 18:08:15;;;;;;;20.98;14.00;;;8.40;99.90;;;;;;6118720;23;20085;-45
2022/03/12 18:11:39;;;;;;;20.83;13.55;;;8.40;99.90;;;;;;6086607;23;20026;-45
2022/03/12 18:15:05;;;;;;;20.80;14.20;;;8.30;99.90;;;;;;6094034;23;20068;-47
2022/03/12 18:18:31;;;;;;;23.75;16.65;;;8.30;99.90;;;;;;6090701;23;20060;-46
2022/03/12 18:21:57;;;;;;;24.33;15.95;;;8.20;99.90;;;;;;6116067;23;20378;-45
2022/03/12 18:25:28;;;;;;;24.27;16.75;;;8.20;99.90;;;;;;6092959;23;20434;-45
2022/03/12 18:28:47;;;;;;;25.13;16.80;;;8.10;99.90;;;;;;6117473;23;20021;-45
2022/03/12 18:32:17;;;;;;;25.70;18.08;;;8.10;99.90;;;;;;6093145;23;20020;-45
2022/03/12 18:39:11;;;;;;;26.73;17.95;;;8.00;99.90;;;;;;6091157;23;20549;-46
2022/03/12 18:42:36;;;;;;;24.33;17.65;;;8.00;99.90;;;;;;6091957;23;20077;-45
2022/03/12 18:45:59;;;;;;;28.90;18.80;;;8.00;99.90;;;;;;6065359;23;20417;-44
2022/03/12 18:49:25;;;;;;;27.92;19.42;;;7.90;99.90;;;;;;6118631;23;20081;-44
2022/03/12 18:52:52;;;;;;;26.17;19.10;;;7.80;99.90;;;;;;6113664;23;20443;-45
2022/03/12 18:55:20;;;;;;;25.92;18.65;;;7.70;99.90;;;;;;6062510;23;20014;-45
2022/03/12 18:58:04;;;;;;;21.88;16.20;;;7.60;99.90;;;;;;6086242;23;20014;-44
2022/03/12 19:32:23;;;;;;;26.33;18.83;;;7.20;99.90;;;;;;6058101;23;20023;-46
2022/03/12 19:55:30;;;;;;;29.50;19.83;;;6.80;99.90;;;;;;6054762;23;20330;-44
2022/03/12 19:58:13;;;;;;;;;;;7.00;99.90;;;;;;6060076;23;20023;-44
2022/03/12 20:12:03;;;;;;;24.27;17.10;;;6.60;99.90;;;;;;6071970;23;20109;-44
2022/03/12 20:15:22;;;;;;;25.02;17.02;;;6.50;99.90;;;;;;6089766;23;20026;-44
2022/03/12 20:18:48;;;;;;;25.45;17.63;;;6.50;99.90;;;;;;6116289;23;20415;-44
2022/03/12 20:22:18;;;;;;;24.65;16.95;;;6.40;99.90;;;;;;6118418;23;20484;-46
2022/03/12 20:25:42;;;;;;;31.05;19.27;;;6.40;99.90;;;;;;6088579;23;20033;-44
2022/03/12 20:29:08;;;;;;;27.05;18.88;;;6.40;99.90;;;;;;6092030;23;20531;-45
2022/03/12 20:32:32;;;;;;;22.67;17.02;;;6.40;99.90;;;;;;6093177;23;20089;-45
2022/03/12 20:39:31;;;;;;;25.42;16.52;;;6.30;99.90;;;;;;6090458;23;20032;-44
2022/03/12 20:42:52;;;;;;;27.13;17.92;;;6.20;99.90;;;;;;6090156;23;20045;-44
2022/03/12 20:46:17;;;;;;;25.67;17.35;;;6.10;99.90;;;;;;6116812;23;20061;-44
2022/03/12 20:49:43;;;;;;;28.00;18.33;;;6.10;99.90;;;;;;6120772;23;20109;-44
2022/03/12 20:53:10;;;;;;;29.13;18.77;;;6.00;99.90;;;;;;6093685;23;20017;-44
2022/03/12 20:56:36;;;;;;;30.63;18.80;;;6.00;99.90;;;;;;6093961;23;20078;-44
2022/03/12 21:00:03;;;;;;;28.38;18.13;;;5.90;99.90;;;;;;6069223;23;20098;-45
2022/03/12 21:03:31;;;;;;;31.20;18.83;;;5.90;99.90;;;;;;6093771;23;20149;-44
2022/03/12 21:06:54;;;;;;;31.33;18.98;;;5.80;99.90;;;;;;6090374;23;20380;-45
2022/03/12 21:10:20;;;;;;;27.30;17.90;;;5.90;99.90;;;;;;6117319;23;20025;-45
2022/03/12 21:13:48;;;;;;;24.88;16.92;;;5.70;99.90;;;;;;6060213;23;20077;-43
2022/03/12 21:17:13;;;;;;;29.33;16.95;;;5.70;99.90;;;;;;6059355;23;20457;-43
2022/03/12 21:20:42;;;;;;;25.30;16.55;;;5.70;99.90;;;;;;6060670;23;20023;-45
2022/03/12 21:24:05;;;;;;;26.13;16.65;;;5.60;99.90;;;;;;6034260;23;20327;-43
2022/03/12 21:27:30;;;;;;;26.95;17.52;;;5.60;99.90;;;;;;6060483;23;20019;-44
2022/03/12 21:30:57;;;;;;;29.35;19.02;;;5.60;99.90;;;;;;6062674;23;20054;-44
2022/03/12 21:34:23;;;;;;;27.65;18.25;;;5.60;99.90;;;;;;6060710;23;20027;-45
2022/03/12 21:37:49;;;;;;;27.67;17.80;;;5.60;99.90;;;;;;6054921;23;20018;-45
2022/03/12 21:41:15;;;;;;;25.38;17.45;;;5.50;99.90;;;;;;6055262;23;20092;-44
2022/03/12 21:44:42;;;;;;;23.48;17.15;;;5.50;99.90;;;;;;6054846;23;20330;-44
2022/03/12 21:48:08;;;;;;;28.25;17.55;;;5.40;99.90;;;;;;6055677;23;20318;-45
2022/03/12 21:51:36;;;;;;;30.58;18.08;;;5.50;99.90;;;;;;6056353;23;20345;-43
2022/03/12 21:58:29;;;;;;;26.00;17.80;;;5.50;99.90;;;;;;6053568;23;20409;-44
2022/03/12 22:01:53;;;;;;;26.95;18.17;;;5.50;99.90;;;;;;6054407;23;20101;-44
2022/03/12 22:05:19;;;;;;;25.10;16.50;;;5.50;99.90;;;;;;6056321;23;20015;-45
2022/03/12 22:08:45;;;;;;;30.42;19.60;;;5.40;99.90;;;;;;6058301;23;20246;-44
2022/03/12 22:15:44;;;;;;;28.25;18.10;;;5.30;99.90;;;;;;6092511;23;20033;-45
2022/03/12 22:19:05;;;;;;;29.83;18.33;;;5.20;99.90;;;;;;6115215;23;20080;-43
2022/03/12 22:22:31;;;;;;;26.10;17.38;;;5.20;99.90;;;;;;6115385;23;20018;-45
2022/03/12 22:25:57;;;;;;;28.08;19.13;;;5.10;99.90;;;;;;6064297;23;20017;-44
2022/03/12 22:29:21;;;;;;;27.73;18.77;;;5.10;99.90;;;;;;6087889;23;20018;-44
2022/03/12 22:32:47;;;;;;;26.90;18.13;;;5.10;99.90;;;;;;6115082;23;20014;-43
2022/03/12 22:36:14;;;;;;;24.80;17.50;;;5.10;99.90;;;;;;6115037;23;20017;-43
2022/03/12 22:39:40;;;;;;;27.27;17.65;;;5.00;99.90;;;;;;6089761;23;20010;-43
2022/03/12 22:43:07;;;;;;;26.02;18.63;;;5.10;99.90;;;;;;6114780;23;20056;-43
2022/03/12 22:46:33;;;;;;;28.17;18.05;;;5.00;99.90;;;;;;6089378;23;20017;-44
2022/03/12 22:50:00;;;;;;;29.75;18.35;;;5.00;99.90;;;;;;6086699;23;20149;-43
2022/03/12 22:53:24;;;;;;;25.75;17.30;;;4.90;99.90;;;;;;6065088;23;20029;-44
2022/03/12 22:56:52;;;;;;;26.45;16.98;;;4.90;99.90;;;;;;6065032;23;20080;-44
2022/03/12 23:00:15;;;;;;;23.75;15.30;;;4.90;99.90;;;;;;6064640;23;20094;-43
2022/03/12 23:09:16;;;;;;;24.83;16.13;;;4.90;99.90;;;;;;6001832;23;20099;-43
2022/03/12 23:12:21;;;;;;;26.13;17.27;;;5.00;99.90;;;;;;5979001;23;20084;-43
